Time;durP1;ratioP1;P1;durP2;ratioP2;P2;SDS_P1;SDS_P2;PMS_P1;PMS_P2;Temp;Humidity;BMP_temperature;BMP_pressure;BME280_temperature;BME280_humidity;BME280_pressure;Samples;Min_cycle;Max_cycle;Signal;HPM_P1;HPM_P2
2022/09/28 00:01:39;;;;;;;5.07;4.18;;;;;;;9.23;77.52;96886.53;5076602;28;20031;-84
2022/09/28 00:04:05;;;;;;;5.80;3.53;;;;;;;9.37;77.17;96887.41;5087203;28;20027;-84
2022/09/28 00:06:31;;;;;;;5.47;3.92;;;;;;;9.14;78.29;96885.59;5081860;28;20027;-85
2022/09/28 00:08:57;;;;;;;6.03;3.80;;;;;;;9.16;78.93;96896.72;5093071;28;20363;-85
2022/09/28 00:11:26;;;;;;;5.57;4.25;;;;;;;8.87;80.04;96894.16;5110606;28;20027;-85
2022/09/28 00:13:55;;;;;;;9.73;4.05;;;;;;;8.64;79.83;96863.09;5109969;28;20024;-86
2022/09/28 00:16:24;;;;;;;11.98;4.85;;;;;;;8.31;83.43;96891.34;5111425;28;20076;-85
2022/09/28 00:18:51;;;;;;;7.57;4.07;;;;;;;8.87;81.21;96887.00;5093083;28;20036;-85
2022/09/28 00:21:20;;;;;;;7.15;4.75;;;;;;;8.55;82.76;96888.72;5093751;28;20027;-85
2022/09/28 00:26:32;;;;;;;8.30;4.90;;;;;;;8.50;81.81;96872.81;5114642;28;20031;-86
2022/09/28 00:28:59;;;;;;;3.67;2.97;;;;;;;9.08;80.70;96882.22;5113922;28;20518;-86
2022/09/28 00:31:27;;;;;;;8.38;4.88;;;;;;;8.60;82.30;96878.81;5126851;27;21570;-85
2022/09/28 00:33:55;;;;;;;13.23;5.45;;;;;;;8.92;80.44;96870.19;5091513;28;20035;-86
2022/09/28 00:36:21;;;;;;;7.60;5.10;;;;;;;8.98;79.85;96867.16;5105730;28;20514;-85
2022/09/28 00:38:47;;;;;;;4.20;2.90;;;;;;;9.33;78.28;96830.47;5111049;28;20100;-85
2022/09/28 00:41:13;;;;;;;5.53;3.45;;;;;;;8.77;80.31;96835.78;5088047;28;20484;-86
2022/09/28 00:43:38;;;;;;;3.25;2.88;;;;;;;8.93;80.10;96837.19;5110007;28;20027;-85
2022/09/28 00:46:14;;;;;;;6.93;3.88;;;;;;;9.24;79.13;96846.31;5108690;28;20031;-86
2022/09/28 00:48:56;;;;;;;5.53;4.03;;;;;;;8.85;80.32;96835.94;5102923;28;20019;-85
2022/09/28 00:51:25;;;;;;;4.35;2.92;;;;;;;9.25;79.02;96836.47;5110923;28;20043;-85
2022/09/28 00:53:51;;;;;;;2.75;2.40;;;;;;;9.37;78.69;96837.59;5088963;28;20028;-86
2022/09/28 00:56:20;;;;;;;4.15;2.85;;;;;;;8.85;80.28;96832.47;5108159;28;20042;-86
2022/09/28 00:58:50;;;;;;;4.70;3.10;;;;;;;9.51;77.52;96835.78;5110026;28;20020;-86
2022/09/28 01:01:15;;;;;;;4.38;2.92;;;;;;;8.74;78.83;96744.06;5089937;28;20024;-86
2022/09/28 01:03:44;;;;;;;3.67;3.38;;;;;;;9.48;78.42;96822.28;5111876;28;20019;-86
2022/09/28 01:06:13;;;;;;;3.08;2.33;;;;;;;8.73;80.77;96819.63;5094525;28;20020;-86
2022/09/28 01:08:40;;;;;;;7.90;3.25;;;;;;;8.99;80.28;96818.22;5102772;28;20066;-86
2022/09/28 01:11:05;;;;;;;4.50;2.60;;;;;;;8.99;79.56;96793.47;5092548;28;20070;-86
2022/09/28 01:13:32;;;;;;;6.78;2.78;;;;;;;9.50;77.49;96810.22;5088627;28;20051;-86
2022/09/28 01:16:14;;;;;;;6.50;4.68;;;;;;;8.14;83.14;96792.66;5089110;28;20080;-85
2022/09/28 01:18:54;;;;;;;4.25;3.10;;;;;;;8.84;80.15;96796.34;5108545;28;20140;-86
2022/09/28 01:21:21;;;;;;;7.60;4.53;;;;;;;8.81;80.95;96804.88;5100142;28;20027;-87
2022/09/28 01:24:26;;;;;;;4.75;4.15;;;;;;;8.98;79.86;96813.94;5105960;28;20375;-86
2022/09/28 01:26:59;;;;;;;7.95;3.80;;;;;;;8.89;80.65;96801.56;5073435;28;20039;-87
2022/09/28 01:29:30;;;;;;;5.60;2.63;;;;;;;9.67;77.62;96802.50;5107638;28;20024;-86
2022/09/28 01:32:04;;;;;;;4.90;4.22;;;;;;;8.66;82.34;96805.88;5106516;28;20043;-86
2022/09/28 01:34:38;;;;;;;8.88;4.70;;;;;;;8.55;81.88;96790.34;5125829;27;20028;-87
2022/09/28 01:37:08;;;;;;;9.40;5.18;;;;;;;8.33;80.78;96705.81;5089668;28;20095;-87
2022/09/28 01:39:38;;;;;;;9.98;5.75;;;;;;;8.50;83.11;96790.38;5105915;28;20027;-86
2022/09/28 01:42:09;;;;;;;6.30;5.22;;;;;;;8.30;84.10;96792.22;5112436;28;20046;-87
2022/09/28 01:44:40;;;;;;;6.55;4.15;;;;;;;8.52;83.24;96778.41;5090427;28;20364;-86
2022/09/28 01:47:14;;;;;;;7.97;4.63;;;;;;;8.53;83.52;96789.84;5106368;28;20026;-86
2022/09/28 01:49:45;;;;;;;7.18;3.28;;;;;;;8.98;80.75;96766.06;5105933;28;20402;-86
2022/09/28 01:52:19;;;;;;;4.55;3.90;;;;;;;8.90;80.17;96752.63;5102747;28;20084;-87
2022/09/28 01:54:51;;;;;;;3.00;2.80;;;;;;;9.24;79.18;96747.81;5107218;28;20472;-87
2022/09/28 01:57:36;;;;;;;7.38;3.92;;;;;;;9.16;79.42;96758.34;5108413;28;20160;-86
2022/09/28 02:00:06;;;;;;;4.60;3.08;;;;;;;8.94;80.79;96757.06;5109412;28;20494;-86
2022/09/28 02:02:37;;;;;;;9.55;4.82;;;;;;;8.64;82.71;96751.41;5091517;28;20543;-87
2022/09/28 02:05:10;;;;;;;9.45;5.32;;;;;;;8.73;81.63;96747.81;5107037;28;20073;-87
2022/09/28 02:07:41;;;;;;;4.60;3.53;;;;;;;8.79;80.68;96736.03;5087932;28;20028;-87
2022/09/28 02:10:32;;;;;;;8.70;5.40;;;;;;;9.16;80.42;96759.13;5107897;28;20491;-87
2022/09/28 02:13:04;;;;;;;6.80;4.32;;;;;;;9.05;80.61;96755.06;5122606;27;20023;-87
2022/09/28 02:15:33;;;;;;;5.25;4.75;;;;;;;8.32;84.60;96744.88;5107984;28;20115;-87
2022/09/28 02:17:59;;;;;;;3.83;2.88;;;;;;;8.61;83.30;96743.97;5102042;28;20028;-87
2022/09/28 02:20:28;;;;;;;6.93;4.25;;;;;;;8.35;84.01;96716.16;5109347;28;20027;-87
2022/09/28 02:22:55;;;;;;;5.05;3.35;;;;;;;8.89;82.33;96738.53;5091113;28;20027;-86
2022/09/28 02:25:42;;;;;;;3.72;2.92;;;;;;;9.53;78.75;96739.63;5107086;28;20100;-86
2022/09/28 02:28:12;;;;;;;5.60;4.88;;;;;;;8.66;82.46;96720.78;5098546;28;20727;-87
2022/09/28 02:30:39;;;;;;;5.22;3.63;;;;;;;8.66;82.57;96710.16;5093127;28;20036;-87
2022/09/28 02:33:18;;;;;;;4.63;3.83;;;;;;;9.03;81.08;96734.06;5091762;28;20491;-86
2022/09/28 02:35:44;;;;;;;4.43;3.38;;;;;;;9.11;81.07;96723.84;5102730;28;20080;-86
2022/09/28 02:38:11;;;;;;;12.43;7.03;;;;;;;8.72;83.14;96732.13;5086747;28;20114;-86
2022/09/28 02:40:38;;;;;;;8.88;7.07;;;;;;;8.58;83.85;96705.50;5106218;28;20114;-86
2022/09/28 02:43:18;;;;;;;8.73;6.75;;;;;;;8.70;83.59;96713.81;5099670;28;20076;-86
2022/09/28 02:46:14;;;;;;;13.25;7.13;;;;;;;8.84;82.34;96717.34;5109913;28;20399;-86
2022/09/28 02:48:59;;;;;;;10.43;6.43;;;;;;;8.78;81.95;96678.56;5103355;28;20031;-87
2022/09/28 02:52:02;;;;;;;5.53;3.40;;;;;;;9.06;80.72;96709.50;5104838;28;20020;-86
2022/09/28 02:54:53;;;;;;;4.40;3.97;;;;;;;9.15;81.37;96717.66;5104255;28;20027;-86
2022/09/28 02:57:27;;;;;;;4.70;3.70;;;;;;;9.29;80.04;96696.38;5102878;28;20535;-86
2022/09/28 03:00:01;;;;;;;6.18;4.65;;;;;;;9.67;78.69;96711.16;5103739;28;20023;-87
2022/09/28 03:02:34;;;;;;;3.65;2.95;;;;;;;10.07;76.74;96712.25;5114346;28;20544;-87
2022/09/28 03:05:04;;;;;;;5.70;3.30;;;;;;;10.11;76.72;96716.69;5109473;28;20428;-87
2022/09/28 03:07:35;;;;;;;10.48;6.60;;;;;;;9.73;78.91;96718.75;5112625;28;20076;-87
2022/09/28 03:10:10;;;;;;;4.93;3.42;;;;;;;9.79;77.73;96716.78;5107550;28;20028;-87
2022/09/28 03:12:37;;;;;;;10.98;6.45;;;;;;;9.37;79.65;96687.75;5109273;28;20031;-86
2022/09/28 03:15:13;;;;;;;6.78;3.42;;;;;;;9.39;79.40;96685.56;5095790;28;20148;-87
2022/09/28 03:17:38;;;;;;;5.32;3.50;;;;;;;9.00;81.63;96678.75;5111543;28;20032;-87
2022/09/28 03:20:04;;;;;;;9.75;4.55;;;;;;;9.20;80.46;96690.13;5107636;28;20045;-87
2022/09/28 03:22:30;;;;;;;5.70;3.55;;;;;;;9.19;80.67;96681.38;5113868;28;20064;-87
2022/09/28 03:24:55;;;;;;;6.65;4.63;;;;;;;8.55;83.35;96673.34;5109770;28;20035;-87
2022/09/28 03:27:21;;;;;;;3.50;3.20;;;;;;;9.34;79.77;96690.97;5094744;28;20029;-86
2022/09/28 03:29:47;;;;;;;9.07;4.50;;;;;;;8.75;80.84;96633.97;5109460;27;20806;-87
2022/09/28 03:32:12;;;;;;;6.50;4.53;;;;;;;8.81;83.17;96682.53;5108702;28;20019;-86
2022/09/28 03:34:37;;;;;;;6.63;5.20;;;;;;;8.98;81.66;96674.81;5112978;28;20039;-87
2022/09/28 03:37:03;;;;;;;12.10;8.10;;;;;;;8.85;82.96;96688.84;5079135;28;20395;-86
2022/09/28 03:39:28;;;;;;;10.65;7.57;;;;;;;8.90;82.36;96692.22;5110802;28;20031;-86
2022/09/28 03:41:53;;;;;;;7.05;4.15;;;;;;;9.02;81.76;96692.56;5127329;27;20084;-86
2022/09/28 03:44:19;;;;;;;10.82;7.82;;;;;;;8.65;83.81;96692.59;5110283;28;20058;-86
2022/09/28 03:46:45;;;;;;;4.97;4.47;;;;;;;8.46;85.37;96673.22;5106753;28;20042;-86
2022/09/28 03:49:11;;;;;;;7.95;6.15;;;;;;;8.51;84.61;96675.00;5094116;28;20036;-86
2022/09/28 03:51:36;;;;;;;8.52;6.75;;;;;;;8.93;82.80;96683.66;5091103;28;20028;-86
2022/09/28 03:54:09;;;;;;;11.82;8.63;;;;;;;8.37;86.38;96687.41;5093813;28;20031;-86
2022/09/28 03:56:34;;;;;;;11.38;8.88;;;;;;;8.80;83.56;96673.75;5093988;28;20023;-86
2022/09/28 03:59:02;;;;;;;8.68;7.35;;;;;;;8.49;85.76;96666.53;5087261;28;20612;-86
2022/09/28 04:01:27;;;;;;;15.13;8.63;;;;;;;8.42;85.65;96655.47;5111532;28;20030;-87
2022/09/28 04:03:56;;;;;;;7.75;6.72;;;;;;;8.32;85.36;96672.38;5109710;28;20454;-87
2022/09/28 04:06:22;;;;;;;5.15;4.18;;;;;;;8.61;84.35;96670.31;5092811;28;20126;-86
2022/09/28 04:08:48;;;;;;;8.43;5.25;;;;;;;8.59;84.54;96669.84;5092284;28;20542;-87
2022/09/28 04:11:13;;;;;;;5.07;4.22;;;;;;;9.38;80.41;96654.69;5113152;28;20106;-87
2022/09/28 04:13:39;;;;;;;6.38;3.67;;;;;;;9.43;79.53;96652.75;5078687;28;20063;-87
2022/09/28 04:16:04;;;;;;;5.25;4.30;;;;;;;9.84;78.03;96658.06;5107714;28;20051;-88
2022/09/28 04:18:31;;;;;;;4.55;4.15;;;;;;;9.84;77.77;96647.41;5111257;28;20028;-87
2022/09/28 04:21:09;;;;;;;5.55;3.60;;;;;;;9.97;77.19;96638.63;5128663;27;20061;-87
2022/09/28 04:23:37;;;;;;;4.47;3.78;;;;;;;9.50;77.98;96607.84;5109393;28;20527;-87
2022/09/28 04:26:04;;;;;;;5.80;4.80;;;;;;;9.94;77.72;96659.75;5093521;28;20103;-87
2022/09/28 04:31:19;;;;;;;5.65;3.97;;;;;;;9.44;80.85;96650.84;5091503;28;20030;-87
2022/09/28 04:33:45;;;;;;;8.93;7.28;;;;;;;9.18;81.61;96636.41;5108696;28;20020;-87
2022/09/28 04:36:10;;;;;;;7.47;6.40;;;;;;;9.35;79.97;96656.06;5111283;28;20023;-86
2022/09/28 04:38:36;;;;;;;4.10;3.70;;;;;;;9.63;78.95;96633.69;5111218;28;20027;-86
2022/09/28 04:41:02;;;;;;;4.63;3.88;;;;;;;9.94;77.26;96657.09;5097271;28;20035;-86
2022/09/28 04:43:28;;;;;;;3.85;2.97;;;;;;;9.67;78.34;96645.34;5127782;27;21785;-86
2022/09/28 04:46:01;;;;;;;5.70;3.10;;;;;;;9.69;78.57;96645.06;5092534;28;20038;-86
2022/09/28 04:48:28;;;;;;;5.22;2.90;;;;;;;9.55;78.04;96610.44;5105315;28;20019;-86
2022/09/28 04:50:54;;;;;;;2.90;2.70;;;;;;;9.70;78.24;96617.31;5110669;28;20040;-86
2022/09/28 04:53:20;;;;;;;3.67;2.13;;;;;;;9.84;77.20;96615.44;5109494;28;20023;-87
2022/09/28 04:56:13;;;;;;;2.47;2.28;;;;;;;9.89;77.13;96633.19;5103444;28;20035;-87
2022/09/28 04:58:38;;;;;;;2.20;2.10;;;;;;;9.81;77.43;96651.47;5110389;28;20180;-86
2022/09/28 05:01:07;;;;;;;2.20;1.98;;;;;;;9.55;78.55;96652.25;5092098;28;20535;-86
2022/09/28 05:03:33;;;;;;;1.73;1.63;;;;;;;9.62;77.99;96616.16;5113361;28;20035;-87
2022/09/28 05:05:58;;;;;;;4.40;1.98;;;;;;;9.82;76.98;96621.09;5107551;28;20027;-87
2022/09/28 05:08:25;;;;;;;2.72;1.70;;;;;;;9.90;77.47;96654.22;5085297;28;20045;-85
2022/09/28 05:10:57;;;;;;;1.85;1.60;;;;;;;9.79;77.76;96652.84;5108063;28;20027;-86
2022/09/28 05:13:22;;;;;;;2.05;1.52;;;;;;;9.64;78.30;96651.25;5108832;28;20022;-85
2022/09/28 05:15:52;;;;;;;1.77;1.67;;;;;;;9.46;78.77;96648.69;5072889;28;20024;-85
2022/09/28 05:18:18;;;;;;;1.58;1.48;;;;;;;9.52;78.42;96637.63;5109159;28;20083;-85
2022/09/28 05:20:43;;;;;;;2.08;1.60;;;;;;;9.36;78.80;96633.69;5106471;28;20468;-85
2022/09/28 05:23:10;;;;;;;1.90;1.55;;;;;;;9.45;78.58;96650.56;5092375;28;20023;-85
2022/09/28 05:25:36;;;;;;;1.27;1.17;;;;;;;9.25;79.11;96615.53;5108997;28;20159;-85
2022/09/28 05:28:02;;;;;;;1.35;1.20;;;;;;;9.62;78.72;96652.63;5108772;28;20152;-86
2022/09/28 05:30:28;;;;;;;1.58;1.48;;;;;;;9.40;78.44;96655.97;5094114;28;20023;-86
2022/09/28 05:32:53;;;;;;;1.63;1.50;;;;;;;9.29;79.21;96643.13;5108363;28;20394;-86
2022/09/28 05:35:19;;;;;;;2.42;1.23;;;;;;;9.65;77.90;96644.06;5072200;28;20375;-86
2022/09/28 05:37:44;;;;;;;1.13;1.02;;;;;;;9.70;77.55;96657.28;5108753;28;20023;-87
2022/09/28 05:40:10;;;;;;;1.30;1.20;;;;;;;9.71;77.58;96653.53;5072560;28;20486;-88
2022/09/28 05:42:36;;;;;;;2.45;1.40;;;;;;;9.66;77.71;96632.31;5122760;27;20081;-87
2022/09/28 05:45:05;;;;;;;2.45;1.40;;;;;;;9.85;77.69;96654.31;5090246;28;20060;-86
2022/09/28 05:47:35;;;;;;;1.13;1.02;;;;;;;9.86;76.81;96645.25;5112590;28;20065;-86
2022/09/28 05:50:01;;;;;;;3.25;2.35;;;;;;;9.72;77.16;96660.44;5092742;28;20031;-86
2022/09/28 05:52:26;;;;;;;2.05;1.67;;;;;;;9.30;78.92;96656.19;5107729;28;20027;-86
2022/09/28 05:54:51;;;;;;;2.45;1.90;;;;;;;9.23;80.01;96670.94;5090526;28;20032;-86
2022/09/28 05:57:17;;;;;;;1.52;1.42;;;;;;;9.30;80.02;96660.69;5105074;28;20039;-85
2022/09/28 05:59:42;;;;;;;1.75;1.52;;;;;;;9.31;80.48;96662.25;5076234;28;21536;-85
2022/09/28 06:02:09;;;;;;;1.15;1.05;;;;;;;9.51;79.38;96667.22;5090622;28;20051;-85
2022/09/28 06:04:34;;;;;;;1.77;1.35;;;;;;;9.31;80.16;96663.06;5117003;28;20024;-85
2022/09/28 06:06:59;;;;;;;3.00;2.53;;;;;;;9.44;78.49;96653.50;5073223;28;20877;-86
2022/09/28 06:09:25;;;;;;;3.42;3.05;;;;;;;9.39;79.35;96659.72;5069693;28;20446;-86
2022/09/28 06:11:52;;;;;;;1.85;1.73;;;;;;;9.57;79.57;96672.16;5106831;28;20497;-86
2022/09/28 06:14:17;;;;;;;3.53;2.65;;;;;;;9.45;79.93;96652.44;5091548;28;20027;-86
2022/09/28 06:16:43;;;;;;;25.33;14.20;;;;;;;9.49;79.41;96674.72;5110410;28;20046;-86
2022/09/28 06:19:10;;;;;;;19.65;11.32;;;;;;;9.20;80.11;96656.34;5111146;28;20168;-86
2022/09/28 06:21:35;;;;;;;5.75;3.85;;;;;;;9.13;81.61;96671.13;5088996;28;20087;-86
2022/09/28 06:24:02;;;;;;;5.32;3.67;;;;;;;8.95;81.05;96668.19;5100832;28;20469;-85
2022/09/28 06:26:27;;;;;;;5.45;4.00;;;;;;;9.45;79.45;96671.06;5105626;28;20027;-85
2022/09/28 06:28:53;;;;;;;4.20;3.63;;;;;;;9.38;79.19;96652.81;5101596;28;20032;-84
2022/09/28 06:31:22;;;;;;;4.00;2.95;;;;;;;9.50;78.75;96679.75;5104595;28;20031;-85
2022/09/28 06:33:48;;;;;;;6.30;3.63;;;;;;;9.25;80.18;96674.09;5107570;28;20027;-84
2022/09/28 06:36:15;;;;;;;3.83;3.13;;;;;;;9.34;80.18;96667.00;5111549;28;20023;-83
2022/09/28 06:38:41;;;;;;;3.42;2.90;;;;;;;9.56;78.61;96651.97;5106868;28;20051;-84
2022/09/28 06:41:06;;;;;;;3.53;2.97;;;;;;;9.72;78.35;96689.72;5072830;28;20028;-84
2022/09/28 06:43:33;;;;;;;4.45;2.95;;;;;;;9.67;79.23;96685.31;5113121;28;20027;-84
2022/09/28 06:45:59;;;;;;;4.82;4.03;;;;;;;9.12;80.15;96691.63;5093143;28;20043;-84
2022/09/28 06:48:25;;;;;;;4.43;2.65;;;;;;;9.36;79.87;96688.81;5107072;28;20410;-84
2022/09/28 06:50:50;;;;;;;6.15;3.60;;;;;;;9.81;78.08;96675.44;5090871;28;20031;-84
2022/09/28 06:53:16;;;;;;;2.80;2.60;;;;;;;9.93;77.52;96706.13;5074810;28;20032;-84
2022/09/28 06:55:47;;;;;;;4.00;3.15;;;;;;;9.71;78.39;96704.16;5112813;28;20028;-83
2022/09/28 06:58:16;;;;;;;4.07;3.67;;;;;;;9.52;79.67;96706.88;5109999;28;20028;-84
2022/09/28 07:00:42;;;;;;;6.28;4.97;;;;;;;8.93;81.32;96707.59;5104536;28;20027;-83
2022/09/28 07:03:12;;;;;;;7.38;5.50;;;;;;;8.98;80.99;96688.09;5115012;28;20024;-84
2022/09/28 07:05:42;;;;;;;4.60;4.20;;;;;;;9.11;79.99;96700.66;5103149;28;20110;-84
2022/09/28 07:08:07;;;;;;;4.00;3.70;;;;;;;9.21;81.00;96710.38;5110232;28;20023;-83
2022/09/28 07:10:34;;;;;;;5.40;4.50;;;;;;;9.35;80.00;96711.97;5113391;28;20394;-83
2022/09/28 07:13:01;;;;;;;6.35;4.72;;;;;;;9.28;80.01;96718.78;5089597;28;20032;-84
2022/09/28 07:15:28;;;;;;;9.35;5.65;;;;;;;9.44;79.20;96725.41;5116502;27;20494;-81
2022/09/28 07:17:58;;;;;;;5.72;4.50;;;;;;;9.35;78.80;96695.22;5110451;28;20123;-81
2022/09/28 07:20:24;;;;;;;7.53;4.07;;;;;;;9.62;78.72;96724.56;5100397;27;20031;-80
2022/09/28 07:23:09;;;;;;;5.80;4.93;;;;;;;9.28;79.64;96716.09;5108851;28;20096;-80
2022/09/28 07:25:35;;;;;;;4.28;3.83;;;;;;;9.71;78.93;96733.44;5086821;28;20033;-81
2022/09/28 07:28:02;;;;;;;6.25;4.95;;;;;;;9.62;78.99;96738.66;5105310;28;20037;-81
2022/09/28 07:30:32;;;;;;;6.05;4.53;;;;;;;9.61;78.95;96744.28;5110943;28;20036;-81
2022/09/28 07:32:57;;;;;;;5.10;4.57;;;;;;;9.26;80.69;96715.63;5111597;28;20054;-81
2022/09/28 07:35:23;;;;;;;5.57;4.80;;;;;;;9.92;79.42;96747.16;5107563;28;20471;-81
2022/09/28 07:37:48;;;;;;;9.68;6.13;;;;;;;9.51;81.11;96726.59;5103678;28;20039;-81
2022/09/28 07:43:05;;;;;;;7.20;6.13;;;;;;;9.77;79.71;96756.25;5105251;28;20026;-80
2022/09/28 07:45:34;;;;;;;7.95;4.72;;;;;;;9.98;79.04;96746.78;5101042;28;20491;-81
2022/09/28 07:48:00;;;;;;;5.63;4.55;;;;;;;9.82;79.54;96742.84;5097860;28;20046;-81
2022/09/28 07:50:25;;;;;;;5.97;4.72;;;;;;;9.86;79.41;96733.16;5104197;28;20035;-81
2022/09/28 07:52:51;;;;;;;5.60;4.03;;;;;;;10.07;78.61;96760.22;5109561;28;20432;-80
2022/09/28 07:55:17;;;;;;;10.68;7.20;;;;;;;9.80;80.50;96753.00;5109781;28;20031;-81
2022/09/28 07:57:45;;;;;;;5.15;4.18;;;;;;;10.22;77.79;96757.31;5103517;28;20059;-81
2022/09/28 08:00:12;;;;;;;9.23;5.70;;;;;;;9.80;80.25;96769.78;5084060;28;20579;-81
2022/09/28 08:02:37;;;;;;;9.10;4.68;;;;;;;10.25;77.60;96759.34;5105242;28;20122;-81
2022/09/28 08:05:03;;;;;;;5.72;4.50;;;;;;;10.16;78.48;96769.91;5102541;28;20099;-81
2022/09/28 08:07:29;;;;;;;5.80;4.60;;;;;;;10.05;79.16;96786.38;5107908;28;20364;-81
2022/09/28 08:09:54;;;;;;;7.60;4.97;;;;;;;10.40;77.56;96786.50;5104924;28;20028;-80
2022/09/28 08:12:20;;;;;;;7.03;5.32;;;;;;;10.28;77.86;96780.91;5109290;28;20058;-81
2022/09/28 08:14:46;;;;;;;6.15;4.57;;;;;;;10.28;78.18;96780.09;5110428;28;20024;-81
2022/09/28 08:17:12;;;;;;;5.38;4.55;;;;;;;10.11;77.54;96772.69;5110233;28;20040;-80
2022/09/28 08:22:21;;;;;;;7.03;4.78;;;;;;;10.22;77.65;96795.38;5108204;28;20088;-80
2022/09/28 08:24:47;;;;;;;6.30;4.68;;;;;;;10.52;76.67;96802.81;5101409;28;20425;-80
2022/09/28 08:27:15;;;;;;;9.85;6.65;;;;;;;10.29;77.70;96803.00;5107655;28;20020;-80
2022/09/28 08:29:42;;;;;;;11.00;7.78;;;;;;;9.86;79.17;96809.63;5084482;27;20038;-80
2022/09/28 08:32:09;;;;;;;5.90;4.78;;;;;;;10.51;77.10;96809.22;5108968;28;20020;-80
2022/09/28 08:34:36;;;;;;;5.43;4.22;;;;;;;10.40;77.13;96786.50;5102604;28;20097;-80
2022/09/28 08:37:01;;;;;;;6.47;4.95;;;;;;;10.50;76.62;96801.53;5103213;28;20024;-81
2022/09/28 08:39:27;;;;;;;7.15;5.10;;;;;;;10.54;76.95;96799.84;5104404;28;20088;-81
2022/09/28 08:42:14;;;;;;;8.13;5.82;;;;;;;10.19;78.56;96796.00;5105834;28;20051;-81
2022/09/28 08:44:56;;;;;;;6.07;4.35;;;;;;;10.52;76.77;96802.81;5104169;28;20015;-80
2022/09/28 08:50:23;;;;;;;10.32;5.60;;;;;;;10.39;76.92;96797.47;5104065;28;20050;-80
2022/09/28 08:52:55;;;;;;;5.65;5.15;;;;;;;10.32;77.01;96813.88;5108207;28;20024;-80
2022/09/28 08:55:31;;;;;;;5.72;3.95;;;;;;;10.52;76.72;96818.03;5110911;28;20028;-80
2022/09/28 08:58:09;;;;;;;;;;;;;;;10.16;77.75;96817.91;5094282;28;20480;-80
2022/09/28 09:00:44;;;;;;;7.50;3.90;;;;;;;10.16;77.36;96790.44;5107272;28;19956;-80
2022/09/28 09:03:14;;;;;;;5.93;3.97;;;;;;;10.42;76.62;96827.00;5107101;28;20026;-80
2022/09/28 09:06:10;;;;;;;6.05;3.60;;;;;;;10.38;76.60;96803.88;5092374;28;20027;-80
2022/09/28 09:08:44;;;;;;;5.68;3.90;;;;;;;10.41;76.73;96820.09;5106759;28;20019;-80
2022/09/28 09:11:33;;;;;;;6.45;4.47;;;;;;;10.57;75.67;96830.47;5105828;28;20023;-80
2022/09/28 09:14:30;;;;;;;9.38;4.15;;;;;;;10.14;76.87;96822.75;5097581;28;20039;-79
2022/09/28 09:17:01;;;;;;;4.72;3.88;;;;;;;10.36;76.26;96812.19;5108420;28;20037;-80
2022/09/28 09:19:29;;;;;;;9.80;5.85;;;;;;;10.41;78.18;96833.44;5106664;28;20027;-80
2022/09/28 09:22:03;;;;;;;5.85;3.92;;;;;;;10.63;76.36;96829.28;5108115;28;20088;-80
2022/09/28 09:24:42;;;;;;;10.82;6.07;;;;;;;10.52;76.90;96834.81;5084580;28;20020;-79
2022/09/28 09:27:21;;;;;;;5.05;4.05;;;;;;;10.79;75.57;96835.88;5099879;28;20024;-80
2022/09/28 09:30:02;;;;;;;7.90;5.35;;;;;;;10.40;76.01;96802.50;5105426;28;20360;-80
2022/09/28 09:32:32;;;;;;;6.15;4.07;;;;;;;10.73;75.16;96832.53;5104139;28;20031;-80
2022/09/28 09:35:19;;;;;;;5.45;3.50;;;;;;;10.70;74.94;96825.13;5101343;28;20034;-80
2022/09/28 09:37:59;;;;;;;8.23;3.88;;;;;;;10.84;75.01;96854.44;5102412;28;20056;-80
2022/09/28 09:40:45;;;;;;;8.20;4.07;;;;;;;10.76;74.73;96855.94;5108745;28;20043;-80
2022/09/28 09:43:38;;;;;;;7.72;5.05;;;;;;;10.57;75.44;96859.81;5101666;28;20531;-80
2022/09/28 09:46:39;;;;;;;6.32;5.10;;;;;;;10.52;75.26;96853.50;5106065;28;20035;-80
2022/09/28 09:49:32;;;;;;;8.13;4.68;;;;;;;10.66;74.86;96858.81;5119250;27;20027;-79
2022/09/28 09:52:08;;;;;;;5.05;3.42;;;;;;;10.52;75.50;96847.38;5107015;28;20173;-80
2022/09/28 09:54:42;;;;;;;6.00;4.28;;;;;;;10.47;75.41;96863.44;5101963;28;20024;-79
2022/09/28 09:57:23;;;;;;;5.80;4.63;;;;;;;10.30;75.72;96866.72;5099019;28;20035;-79
2022/09/28 09:59:48;;;;;;;4.43;3.45;;;;;;;10.57;75.08;96859.81;5100355;28;20039;-80
2022/09/28 10:02:22;;;;;;;9.43;4.18;;;;;;;10.74;75.48;96878.69;5100934;28;20027;-79
2022/09/28 10:04:51;;;;;;;6.63;3.80;;;;;;;10.59;75.43;96871.78;5106716;28;20619;-79
2022/09/28 10:07:23;;;;;;;8.23;6.03;;;;;;;10.72;75.11;96883.53;5076737;28;20036;-79
2022/09/28 10:09:53;;;;;;;7.40;4.40;;;;;;;10.84;74.56;96875.78;5101611;28;20058;-80
2022/09/28 10:12:20;;;;;;;4.65;3.58;;;;;;;10.69;74.99;96881.44;5098571;28;20388;-80
2022/09/28 10:14:46;;;;;;;6.28;4.07;;;;;;;10.40;76.72;96877.19;5102841;28;20486;-80
2022/09/28 10:17:18;;;;;;;8.13;4.07;;;;;;;10.07;76.96;96851.63;5106035;28;20024;-80
2022/09/28 10:19:44;;;;;;;10.65;4.60;;;;;;;10.79;75.06;96875.91;5106537;28;20023;-79
2022/09/28 10:22:15;;;;;;;6.63;3.53;;;;;;;10.54;76.75;96870.00;5096244;28;20038;-81
2022/09/28 10:24:46;;;;;;;6.13;4.68;;;;;;;10.50;76.17;96870.88;5098430;28;20038;-81
2022/09/28 10:27:22;;;;;;;6.05;4.32;;;;;;;10.10;77.10;96869.69;5102310;28;20035;-81
2022/09/28 10:30:03;;;;;;;4.80;3.60;;;;;;;10.78;75.76;96877.00;5082335;28;20031;-81
2022/09/28 10:32:40;;;;;;;5.03;3.55;;;;;;;10.57;75.34;96860.59;5099054;28;20031;-81
2022/09/28 10:35:18;;;;;;;4.80;3.63;;;;;;;10.72;76.45;96875.53;5108060;28;20079;-81
2022/09/28 10:37:58;;;;;;;3.65;3.15;;;;;;;10.86;75.01;96873.63;5108042;28;20027;-81
2022/09/28 10:40:32;;;;;;;5.35;3.53;;;;;;;10.41;76.38;96876.09;5098872;28;20023;-81
2022/09/28 10:43:04;;;;;;;3.33;3.03;;;;;;;10.55;76.49;96879.56;5105694;28;20080;-81
2022/09/28 10:45:35;;;;;;;3.88;3.15;;;;;;;10.59;75.77;96862.97;5104699;28;20457;-81
2022/09/28 10:48:05;;;;;;;5.13;3.38;;;;;;;10.70;75.48;96872.34;5100748;28;20023;-81
2022/09/28 10:50:31;;;;;;;6.85;3.08;;;;;;;10.80;75.30;96872.94;5108681;28;20735;-80
2022/09/28 10:53:20;;;;;;;4.10;3.22;;;;;;;10.92;74.67;96880.44;5089927;28;20062;-81
2022/09/28 10:56:03;;;;;;;6.03;2.63;;;;;;;11.06;74.87;96881.22;5079592;28;20070;-79
2022/09/28 10:58:37;;;;;;;3.92;2.72;;;;;;;11.02;74.54;96883.69;5083444;28;20497;-79
2022/09/28 11:01:08;;;;;;;5.25;3.28;;;;;;;11.10;75.17;96879.53;5101045;28;20027;-79
2022/09/28 11:03:46;;;;;;;5.70;3.47;;;;;;;11.29;74.20;96869.50;5108433;28;20027;-79
2022/09/28 11:06:12;;;;;;;3.38;3.00;;;;;;;11.54;73.74;96873.47;5097945;28;20020;-79
2022/09/28 11:08:41;;;;;;;3.15;2.28;;;;;;;11.75;72.64;96864.69;5105796;28;20509;-79
2022/09/28 11:11:08;;;;;;;3.13;2.10;;;;;;;11.86;72.01;96876.72;5074128;28;20043;-79
2022/09/28 11:14:01;;;;;;;3.88;2.28;;;;;;;11.94;72.00;96870.66;5107344;28;20036;-79
2022/09/28 11:16:32;;;;;;;4.07;2.50;;;;;;;11.95;71.71;96858.06;5079695;28;20391;-80
2022/09/28 11:19:03;;;;;;;2.88;2.20;;;;;;;12.02;71.23;96856.56;5102453;28;20352;-79
2022/09/28 11:21:39;;;;;;;3.92;2.65;;;;;;;12.19;71.11;96868.47;5097795;28;20032;-79
2022/09/28 11:24:23;;;;;;;3.58;2.20;;;;;;;12.24;71.07;96868.31;5103080;28;20020;-79
2022/09/28 11:26:51;;;;;;;5.82;2.40;;;;;;;12.40;70.40;96858.78;5101599;28;20028;-79
2022/09/28 11:29:33;;;;;;;3.90;3.40;;;;;;;12.67;69.90;96863.91;5102976;28;20031;-79
2022/09/28 11:32:04;;;;;;;4.50;2.40;;;;;;;12.77;69.63;96860.97;5103748;28;20027;-79
2022/09/28 11:34:36;;;;;;;3.25;2.40;;;;;;;13.00;69.55;96875.84;5095847;28;20052;-79
2022/09/28 11:37:21;;;;;;;7.10;4.75;;;;;;;12.82;69.66;96877.69;5104609;28;20478;-79
2022/09/28 11:40:03;;;;;;;3.30;2.97;;;;;;;13.05;69.74;96866.91;5097974;28;20099;-79
2022/09/28 11:42:51;;;;;;;2.67;2.45;;;;;;;12.74;70.34;96874.97;5112185;28;20027;-79
2022/09/28 11:45:31;;;;;;;6.20;3.17;;;;;;;12.86;68.91;96891.25;5106956;28;20042;-79
2022/09/28 11:48:01;;;;;;;3.72;2.92;;;;;;;12.84;71.61;96872.03;5111145;28;20075;-79
2022/09/28 11:50:41;;;;;;;3.55;2.85;;;;;;;13.01;71.27;96884.66;5112120;28;20717;-79
2022/09/28 11:53:21;;;;;;;3.15;2.13;;;;;;;13.31;69.52;96863.16;5101876;28;20028;-79
2022/09/28 11:55:55;;;;;;;4.18;3.75;;;;;;;12.96;66.76;96874.88;5103665;28;20031;-79
2022/09/28 11:58:26;;;;;;;5.18;3.88;;;;;;;11.79;68.91;96872.91;5099060;28;20467;-79
2022/09/28 12:01:12;;;;;;;5.00;3.47;;;;;;;12.20;72.29;96891.41;5110247;27;20032;-79
2022/09/28 12:03:37;;;;;;;4.80;2.70;;;;;;;12.51;71.66;96902.91;5108325;28;20068;-79
2022/09/28 12:06:08;;;;;;;3.97;3.03;;;;;;;11.85;73.32;96909.13;5103285;28;20088;-79
2022/09/28 12:08:43;;;;;;;3.95;2.90;;;;;;;11.91;73.72;96911.38;5084831;28;20034;-79
2022/09/28 12:11:49;;;;;;;5.20;3.08;;;;;;;11.86;73.72;96897.34;5086418;28;20027;-80